sensor_id;sensor_type;location;lat;lon;timestamp;temperature;humidity
59847;DHT22;45728;48.788;2.302;2023-04-19T00:00:56;11.50;99.90
59847;DHT22;45728;48.788;2.302;2023-04-19T00:03:22;11.40;99.90
59847;DHT22;45728;48.788;2.302;2023-04-19T00:05:50;11.40;99.90
59847;DHT22;45728;48.788;2.302;2023-04-19T00:08:19;11.40;99.90
59847;DHT22;45728;48.788;2.302;2023-04-19T00:10:45;11.40;99.90
59847;DHT22;45728;48.788;2.302;2023-04-19T00:13:11;11.50;99.90
59847;DHT22;45728;48.788;2.302;2023-04-19T00:15:37;11.60;99.90
59847;DHT22;45728;48.788;2.302;2023-04-19T00:18:03;11.60;99.90
59847;DHT22;45728;48.788;2.302;2023-04-19T00:20:29;11.70;99.90
59847;DHT22;45728;48.788;2.302;2023-04-19T00:22:55;11.60;99.90
59847;DHT22;45728;48.788;2.302;2023-04-19T00:25:24;11.60;99.90
59847;DHT22;45728;48.788;2.302;2023-04-19T00:27:50;11.60;99.90
59847;DHT22;45728;48.788;2.302;2023-04-19T00:30:16;11.60;99.90
59847;DHT22;45728;48.788;2.302;2023-04-19T00:32:42;11.70;99.90
59847;DHT22;45728;48.788;2.302;2023-04-19T00:35:08;11.60;99.90
59847;DHT22;45728;48.788;2.302;2023-04-19T00:37:34;11.60;99.90
59847;DHT22;45728;48.788;2.302;2023-04-19T00:40:00;11.60;99.90
59847;DHT22;45728;48.788;2.302;2023-04-19T00:42:45;11.60;99.90
59847;DHT22;45728;48.788;2.302;2023-04-19T00:45:11;11.60;99.90
59847;DHT22;45728;48.788;2.302;2023-04-19T00:47:37;11.60;99.90
59847;DHT22;45728;48.788;2.302;2023-04-19T00:50:04;11.60;99.90
59847;DHT22;45728;48.788;2.302;2023-04-19T00:52:32;11.60;99.90
59847;DHT22;45728;48.788;2.302;2023-04-19T00:54:59;11.60;99.90
59847;DHT22;45728;48.788;2.302;2023-04-19T00:57:25;11.60;99.90
59847;DHT22;45728;48.788;2.302;2023-04-19T00:59:53;11.60;99.90
59847;DHT22;45728;48.788;2.302;2023-04-19T01:02:20;11.50;99.90
59847;DHT22;45728;48.788;2.302;2023-04-19T01:04:47;11.50;99.90
59847;DHT22;45728;48.788;2.302;2023-04-19T01:07:13;11.50;99.90
59847;DHT22;45728;48.788;2.302;2023-04-19T01:09:40;11.50;99.90
59847;DHT22;45728;48.788;2.302;2023-04-19T01:12:07;11.50;99.90
59847;DHT22;45728;48.788;2.302;2023-04-19T01:14:33;11.50;99.90
59847;DHT22;45728;48.788;2.302;2023-04-19T01:17:00;11.50;99.90
59847;DHT22;45728;48.788;2.302;2023-04-19T01:19:26;11.30;99.90
59847;DHT22;45728;48.788;2.302;2023-04-19T01:21:52;11.30;99.90
59847;DHT22;45728;48.788;2.302;2023-04-19T01:24:18;11.20;99.90
59847;DHT22;45728;48.788;2.302;2023-04-19T01:26:44;11.20;99.90
59847;DHT22;45728;48.788;2.302;2023-04-19T01:29:10;11.20;99.90
59847;DHT22;45728;48.788;2.302;2023-04-19T01:31:36;11.20;99.90
59847;DHT22;45728;48.788;2.302;2023-04-19T01:34:02;11.10;99.90
59847;DHT22;45728;48.788;2.302;2023-04-19T01:36:28;11.20;99.90
59847;DHT22;45728;48.788;2.302;2023-04-19T01:38:56;11.00;99.90
59847;DHT22;45728;48.788;2.302;2023-04-19T01:41:22;11.00;99.90
59847;DHT22;45728;48.788;2.302;2023-04-19T01:43:52;11.00;99.90
59847;DHT22;45728;48.788;2.302;2023-04-19T01:46:18;10.90;99.90
59847;DHT22;45728;48.788;2.302;2023-04-19T01:48:44;10.90;99.90
59847;DHT22;45728;48.788;2.302;2023-04-19T01:51:10;10.90;99.90
59847;DHT22;45728;48.788;2.302;2023-04-19T01:53:36;10.90;99.90
59847;DHT22;45728;48.788;2.302;2023-04-19T01:56:02;10.90;99.90
59847;DHT22;45728;48.788;2.302;2023-04-19T01:58:28;10.90;99.90
59847;DHT22;45728;48.788;2.302;2023-04-19T02:00:54;10.90;99.90
59847;DHT22;45728;48.788;2.302;2023-04-19T02:03:20;10.80;99.90
59847;DHT22;45728;48.788;2.302;2023-04-19T02:05:46;10.80;99.90
59847;DHT22;45728;48.788;2.302;2023-04-19T02:08:12;10.70;99.90
59847;DHT22;45728;48.788;2.302;2023-04-19T02:10:38;10.70;99.90
59847;DHT22;45728;48.788;2.302;2023-04-19T02:13:04;10.60;99.90
59847;DHT22;45728;48.788;2.302;2023-04-19T02:15:30;10.60;99.90
59847;DHT22;45728;48.788;2.302;2023-04-19T02:17:56;10.60;99.90
59847;DHT22;45728;48.788;2.302;2023-04-19T02:20:24;10.60;99.90
59847;DHT22;45728;48.788;2.302;2023-04-19T02:22:51;10.60;99.90
59847;DHT22;45728;48.788;2.302;2023-04-19T02:25:17;10.60;99.90
59847;DHT22;45728;48.788;2.302;2023-04-19T02:27:44;10.60;99.90
59847;DHT22;45728;48.788;2.302;2023-04-19T02:30:10;10.50;99.90
59847;DHT22;45728;48.788;2.302;2023-04-19T02:32:36;10.60;99.90
59847;DHT22;45728;48.788;2.302;2023-04-19T02:35:02;10.50;99.90
59847;DHT22;45728;48.788;2.302;2023-04-19T02:37:29;10.40;99.90
59847;DHT22;45728;48.788;2.302;2023-04-19T02:39:55;10.40;99.90
59847;DHT22;45728;48.788;2.302;2023-04-19T02:42:21;10.40;99.90
59847;DHT22;45728;48.788;2.302;2023-04-19T02:44:47;10.40;99.90
59847;DHT22;45728;48.788;2.302;2023-04-19T02:47:13;10.30;99.90
59847;DHT22;45728;48.788;2.302;2023-04-19T02:49:39;10.40;99.90
59847;DHT22;45728;48.788;2.302;2023-04-19T02:52:06;10.40;99.90
59847;DHT22;45728;48.788;2.302;2023-04-19T02:54:32;10.30;99.90
59847;DHT22;45728;48.788;2.302;2023-04-19T02:56:58;10.20;99.90
59847;DHT22;45728;48.788;2.302;2023-04-19T02:59:24;10.20;99.90
59847;DHT22;45728;48.788;2.302;2023-04-19T03:01:51;10.20;99.90
59847;DHT22;45728;48.788;2.302;2023-04-19T03:04:17;10.20;99.90
59847;DHT22;45728;48.788;2.302;2023-04-19T03:06:43;10.20;99.90
59847;DHT22;45728;48.788;2.302;2023-04-19T03:09:09;10.10;99.90
59847;DHT22;45728;48.788;2.302;2023-04-19T03:11:35;10.10;99.90
59847;DHT22;45728;48.788;2.302;2023-04-19T03:14:03;10.10;99.90
59847;DHT22;45728;48.788;2.302;2023-04-19T03:16:29;10.10;99.90
59847;DHT22;45728;48.788;2.302;2023-04-19T03:18:55;10.10;99.90
59847;DHT22;45728;48.788;2.302;2023-04-19T03:21:21;10.00;99.90
59847;DHT22;45728;48.788;2.302;2023-04-19T03:23:52;10.10;99.90
59847;DHT22;45728;48.788;2.302;2023-04-19T03:26:18;10.10;99.90
59847;DHT22;45728;48.788;2.302;2023-04-19T03:28:44;10.10;99.90
59847;DHT22;45728;48.788;2.302;2023-04-19T03:31:11;10.00;99.90
59847;DHT22;45728;48.788;2.302;2023-04-19T03:33:38;10.00;99.90
59847;DHT22;45728;48.788;2.302;2023-04-19T03:36:04;10.00;99.90
59847;DHT22;45728;48.788;2.302;2023-04-19T03:38:31;10.00;99.90
59847;DHT22;45728;48.788;2.302;2023-04-19T03:40:58;10.00;99.90
59847;DHT22;45728;48.788;2.302;2023-04-19T03:43:24;10.00;99.90
59847;DHT22;45728;48.788;2.302;2023-04-19T03:45:50;10.00;99.90
59847;DHT22;45728;48.788;2.302;2023-04-19T03:48:16;10.00;99.90
59847;DHT22;45728;48.788;2.302;2023-04-19T03:50:42;10.00;99.90
59847;DHT22;45728;48.788;2.302;2023-04-19T03:53:08;10.00;99.90
59847;DHT22;45728;48.788;2.302;2023-04-19T03:55:34;10.00;99.90
59847;DHT22;45728;48.788;2.302;2023-04-19T03:58:00;10.00;99.90
59847;DHT22;45728;48.788;2.302;2023-04-19T04:00:26;9.90;99.90
59847;DHT22;45728;48.788;2.302;2023-04-19T04:02:52;10.00;99.90
59847;DHT22;45728;48.788;2.302;2023-04-19T04:05:18;9.90;99.90
59847;DHT22;45728;48.788;2.302;2023-04-19T04:07:44;9.90;99.90
59847;DHT22;45728;48.788;2.302;2023-04-19T04:10:11;9.90;99.90
59847;DHT22;45728;48.788;2.302;2023-04-19T04:12:37;9.90;99.90
59847;DHT22;45728;48.788;2.302;2023-04-19T04:15:03;9.90;99.90
59847;DHT22;45728;48.788;2.302;2023-04-19T04:17:30;9.90;99.90
59847;DHT22;45728;48.788;2.302;2023-04-19T04:19:56;9.90;99.90
59847;DHT22;45728;48.788;2.302;2023-04-19T04:22:22;9.80;99.90
59847;DHT22;45728;48.788;2.302;2023-04-19T04:24:48;9.80;99.90
59847;DHT22;45728;48.788;2.302;2023-04-19T04:27:14;9.80;99.90
59847;DHT22;45728;48.788;2.302;2023-04-19T04:29:45;9.80;99.90
59847;DHT22;45728;48.788;2.302;2023-04-19T04:32:11;9.80;99.90
59847;DHT22;45728;48.788;2.302;2023-04-19T04:34:39;9.70;99.90
59847;DHT22;45728;48.788;2.302;2023-04-19T04:37:05;9.80;99.90
59847;DHT22;45728;48.788;2.302;2023-04-19T04:39:33;9.80;99.90
59847;DHT22;45728;48.788;2.302;2023-04-19T04:42:05;9.80;99.90
59847;DHT22;45728;48.788;2.302;2023-04-19T04:44:36;9.70;99.90
59847;DHT22;45728;48.788;2.302;2023-04-19T04:47:03;9.60;99.90
59847;DHT22;45728;48.788;2.302;2023-04-19T04:49:29;9.60;99.90
59847;DHT22;45728;48.788;2.302;2023-04-19T04:51:56;9.50;99.90
59847;DHT22;45728;48.788;2.302;2023-04-19T04:54:22;9.50;99.90
59847;DHT22;45728;48.788;2.302;2023-04-19T04:56:48;9.50;99.90
59847;DHT22;45728;48.788;2.302;2023-04-19T04:59:14;9.50;99.90
59847;DHT22;45728;48.788;2.302;2023-04-19T05:01:40;9.50;99.90
59847;DHT22;45728;48.788;2.302;2023-04-19T05:04:06;9.60;99.90
59847;DHT22;45728;48.788;2.302;2023-04-19T05:06:32;9.50;99.90
59847;DHT22;45728;48.788;2.302;2023-04-19T05:08:58;9.60;99.90
59847;DHT22;45728;48.788;2.302;2023-04-19T05:11:26;9.60;99.90
59847;DHT22;45728;48.788;2.302;2023-04-19T05:13:52;9.60;99.90
59847;DHT22;45728;48.788;2.302;2023-04-19T05:16:18;9.60;99.90
59847;DHT22;45728;48.788;2.302;2023-04-19T05:18:44;9.60;99.90
59847;DHT22;45728;48.788;2.302;2023-04-19T05:21:10;9.70;99.90
59847;DHT22;45728;48.788;2.302;2023-04-19T05:23:37;9.70;99.90
59847;DHT22;45728;48.788;2.302;2023-04-19T05:26:03;9.70;99.90
59847;DHT22;45728;48.788;2.302;2023-04-19T05:28:29;9.70;99.90
59847;DHT22;45728;48.788;2.302;2023-04-19T05:30:55;9.70;99.90
59847;DHT22;45728;48.788;2.302;2023-04-19T05:33:21;9.70;99.90
59847;DHT22;45728;48.788;2.302;2023-04-19T05:35:47;9.70;99.90
59847;DHT22;45728;48.788;2.302;2023-04-19T05:38:13;9.70;99.90
59847;DHT22;45728;48.788;2.302;2023-04-19T05:40:39;9.70;99.90
59847;DHT22;45728;48.788;2.302;2023-04-19T05:43:05;9.70;99.90
59847;DHT22;45728;48.788;2.302;2023-04-19T05:45:32;9.70;99.90
59847;DHT22;45728;48.788;2.302;2023-04-19T05:47:58;9.80;99.90
59847;DHT22;45728;48.788;2.302;2023-04-19T05:50:24;9.80;99.90
59847;DHT22;45728;48.788;2.302;2023-04-19T05:52:50;9.80;99.90
59847;DHT22;45728;48.788;2.302;2023-04-19T05:55:16;9.80;99.90
59847;DHT22;45728;48.788;2.302;2023-04-19T05:57:42;9.80;99.90
59847;DHT22;45728;48.788;2.302;2023-04-19T06:00:09;9.80;99.90
59847;DHT22;45728;48.788;2.302;2023-04-19T06:02:35;9.90;99.90
59847;DHT22;45728;48.788;2.302;2023-04-19T06:05:01;9.90;99.90
59847;DHT22;45728;48.788;2.302;2023-04-19T06:07:31;9.90;99.90
59847;DHT22;45728;48.788;2.302;2023-04-19T06:09:57;9.80;99.90
59847;DHT22;45728;48.788;2.302;2023-04-19T06:12:23;9.90;99.90
59847;DHT22;45728;48.788;2.302;2023-04-19T06:14:49;9.80;99.90
59847;DHT22;45728;48.788;2.302;2023-04-19T06:17:15;9.90;99.90
59847;DHT22;45728;48.788;2.302;2023-04-19T06:19:42;9.90;99.90
59847;DHT22;45728;48.788;2.302;2023-04-19T06:22:08;10.00;99.90
59847;DHT22;45728;48.788;2.302;2023-04-19T06:24:34;10.10;99.90
59847;DHT22;45728;48.788;2.302;2023-04-19T06:27:00;10.10;99.90
59847;DHT22;45728;48.788;2.302;2023-04-19T06:29:27;10.10;99.90
59847;DHT22;45728;48.788;2.302;2023-04-19T06:31:53;10.20;99.90
59847;DHT22;45728;48.788;2.302;2023-04-19T06:34:19;10.20;99.90
59847;DHT22;45728;48.788;2.302;2023-04-19T06:36:45;10.20;99.90
59847;DHT22;45728;48.788;2.302;2023-04-19T06:39:11;10.20;99.90
59847;DHT22;45728;48.788;2.302;2023-04-19T06:41:37;10.30;99.90
59847;DHT22;45728;48.788;2.302;2023-04-19T06:44:03;10.40;99.90
59847;DHT22;45728;48.788;2.302;2023-04-19T06:46:29;10.50;99.90
59847;DHT22;45728;48.788;2.302;2023-04-19T06:48:56;10.70;99.90
59847;DHT22;45728;48.788;2.302;2023-04-19T06:51:22;10.80;99.90
59847;DHT22;45728;48.788;2.302;2023-04-19T06:53:48;10.80;99.90
59847;DHT22;45728;48.788;2.302;2023-04-19T06:56:15;10.80;99.90
59847;DHT22;45728;48.788;2.302;2023-04-19T06:58:41;11.00;99.90
59847;DHT22;45728;48.788;2.302;2023-04-19T07:01:07;11.20;99.90
59847;DHT22;45728;48.788;2.302;2023-04-19T07:03:34;11.20;99.90
59847;DHT22;45728;48.788;2.302;2023-04-19T07:06:00;11.20;99.90
59847;DHT22;45728;48.788;2.302;2023-04-19T07:08:26;11.20;99.90
59847;DHT22;45728;48.788;2.302;2023-04-19T07:10:52;11.20;99.90
59847;DHT22;45728;48.788;2.302;2023-04-19T07:13:18;11.20;99.90
59847;DHT22;45728;48.788;2.302;2023-04-19T07:15:44;11.40;99.90
59847;DHT22;45728;48.788;2.302;2023-04-19T07:18:11;11.50;99.90
59847;DHT22;45728;48.788;2.302;2023-04-19T07:20:39;11.60;99.90
59847;DHT22;45728;48.788;2.302;2023-04-19T07:23:10;11.60;99.90
59847;DHT22;45728;48.788;2.302;2023-04-19T07:25:36;11.70;99.90
59847;DHT22;45728;48.788;2.302;2023-04-19T07:28:02;11.90;99.90
59847;DHT22;45728;48.788;2.302;2023-04-19T07:30:28;12.00;99.90
59847;DHT22;45728;48.788;2.302;2023-04-19T07:32:54;12.10;99.90
59847;DHT22;45728;48.788;2.302;2023-04-19T07:35:20;12.00;99.90
59847;DHT22;45728;48.788;2.302;2023-04-19T07:37:47;12.00;99.90
59847;DHT22;45728;48.788;2.302;2023-04-19T07:40:13;12.20;99.90
59847;DHT22;45728;48.788;2.302;2023-04-19T07:42:39;12.30;99.90
59847;DHT22;45728;48.788;2.302;2023-04-19T07:45:05;12.40;99.90
59847;DHT22;45728;48.788;2.302;2023-04-19T07:47:31;12.40;99.90
59847;DHT22;45728;48.788;2.302;2023-04-19T07:49:57;12.40;99.90
59847;DHT22;45728;48.788;2.302;2023-04-19T07:52:24;12.50;99.90
59847;DHT22;45728;48.788;2.302;2023-04-19T07:54:50;12.60;99.90
59847;DHT22;45728;48.788;2.302;2023-04-19T07:57:16;12.70;99.90
59847;DHT22;45728;48.788;2.302;2023-04-19T07:59:42;12.70;99.90
59847;DHT22;45728;48.788;2.302;2023-04-19T08:02:08;12.80;99.90
59847;DHT22;45728;48.788;2.302;2023-04-19T08:04:34;12.80;99.90
59847;DHT22;45728;48.788;2.302;2023-04-19T08:07:01;12.90;99.90
59847;DHT22;45728;48.788;2.302;2023-04-19T08:09:29;13.00;99.90
59847;DHT22;45728;48.788;2.302;2023-04-19T08:11:55;13.00;99.90
59847;DHT22;45728;48.788;2.302;2023-04-19T08:14:22;12.90;99.90
59847;DHT22;45728;48.788;2.302;2023-04-19T08:16:48;13.00;99.90
59847;DHT22;45728;48.788;2.302;2023-04-19T08:19:14;13.10;99.90
59847;DHT22;45728;48.788;2.302;2023-04-19T08:21:40;13.00;99.90
59847;DHT22;45728;48.788;2.302;2023-04-19T08:24:06;13.00;99.90
59847;DHT22;45728;48.788;2.302;2023-04-19T08:26:33;13.10;99.90
59847;DHT22;45728;48.788;2.302;2023-04-19T08:28:59;13.30;99.90
59847;DHT22;45728;48.788;2.302;2023-04-19T08:31:25;13.40;99.90
59847;DHT22;45728;48.788;2.302;2023-04-19T08:33:51;13.30;99.90
59847;DHT22;45728;48.788;2.302;2023-04-19T08:36:17;13.40;99.90
59847;DHT22;45728;48.788;2.302;2023-04-19T08:38:43;13.40;99.90
59847;DHT22;45728;48.788;2.302;2023-04-19T08:41:10;13.50;99.90
59847;DHT22;45728;48.788;2.302;2023-04-19T08:43:39;13.50;99.90
59847;DHT22;45728;48.788;2.302;2023-04-19T08:46:10;13.50;99.90
59847;DHT22;45728;48.788;2.302;2023-04-19T08:48:37;13.70;99.90
59847;DHT22;45728;48.788;2.302;2023-04-19T08:51:03;13.80;99.90
59847;DHT22;45728;48.788;2.302;2023-04-19T08:53:31;13.90;99.90
59847;DHT22;45728;48.788;2.302;2023-04-19T08:55:58;13.80;99.90
59847;DHT22;45728;48.788;2.302;2023-04-19T08:58:25;13.80;99.90
59847;DHT22;45728;48.788;2.302;2023-04-19T09:00:51;13.80;99.90
59847;DHT22;45728;48.788;2.302;2023-04-19T09:03:17;14.00;99.90
59847;DHT22;45728;48.788;2.302;2023-04-19T09:05:43;14.00;99.90
59847;DHT22;45728;48.788;2.302;2023-04-19T09:08:29;13.90;99.90
59847;DHT22;45728;48.788;2.302;2023-04-19T09:10:59;14.00;99.90
59847;DHT22;45728;48.788;2.302;2023-04-19T09:13:27;14.10;99.90
59847;DHT22;45728;48.788;2.302;2023-04-19T09:15:54;14.20;99.90
59847;DHT22;45728;48.788;2.302;2023-04-19T09:18:22;14.40;99.90
59847;DHT22;45728;48.788;2.302;2023-04-19T09:20:50;14.50;99.90
59847;DHT22;45728;48.788;2.302;2023-04-19T09:23:23;14.40;99.90
59847;DHT22;45728;48.788;2.302;2023-04-19T09:26:00;14.60;99.90
59847;DHT22;45728;48.788;2.302;2023-04-19T09:28:27;15.00;99.90
59847;DHT22;45728;48.788;2.302;2023-04-19T09:30:54;15.30;99.90
59847;DHT22;45728;48.788;2.302;2023-04-19T09:33:37;15.40;99.90
59847;DHT22;45728;48.788;2.302;2023-04-19T09:36:05;15.40;99.90
59847;DHT22;45728;48.788;2.302;2023-04-19T09:38:48;15.60;99.90
59847;DHT22;45728;48.788;2.302;2023-04-19T09:41:15;15.70;99.90
59847;DHT22;45728;48.788;2.302;2023-04-19T09:43:42;15.70;99.90
59847;DHT22;45728;48.788;2.302;2023-04-19T09:46:08;15.90;99.90
59847;DHT22;45728;48.788;2.302;2023-04-19T09:48:54;16.20;99.90
59847;DHT22;45728;48.788;2.302;2023-04-19T09:51:20;16.40;99.90
59847;DHT22;45728;48.788;2.302;2023-04-19T09:53:47;16.80;99.90
59847;DHT22;45728;48.788;2.302;2023-04-19T09:56:14;16.60;99.90
59847;DHT22;45728;48.788;2.302;2023-04-19T09:58:41;16.30;99.90
59847;DHT22;45728;48.788;2.302;2023-04-19T10:01:09;16.30;99.90
59847;DHT22;45728;48.788;2.302;2023-04-19T10:03:36;16.90;99.90
59847;DHT22;45728;48.788;2.302;2023-04-19T10:06:03;17.30;99.90
59847;DHT22;45728;48.788;2.302;2023-04-19T10:08:29;17.20;99.90
59847;DHT22;45728;48.788;2.302;2023-04-19T10:10:57;17.30;99.90
59847;DHT22;45728;48.788;2.302;2023-04-19T10:13:23;17.40;99.90
59847;DHT22;45728;48.788;2.302;2023-04-19T10:15:50;17.60;99.90
59847;DHT22;45728;48.788;2.302;2023-04-19T10:18:16;18.10;99.90
59847;DHT22;45728;48.788;2.302;2023-04-19T10:20:54;18.10;99.90
59847;DHT22;45728;48.788;2.302;2023-04-19T10:23:22;18.00;99.90
59847;DHT22;45728;48.788;2.302;2023-04-19T10:25:55;18.30;99.90
59847;DHT22;45728;48.788;2.302;2023-04-19T10:28:22;18.00;99.90
59847;DHT22;45728;48.788;2.302;2023-04-19T10:31:11;17.80;99.90
59847;DHT22;45728;48.788;2.302;2023-04-19T10:33:40;18.20;99.90
59847;DHT22;45728;48.788;2.302;2023-04-19T10:36:13;18.50;99.90
59847;DHT22;45728;48.788;2.302;2023-04-19T10:41:12;18.10;99.90
59847;DHT22;45728;48.788;2.302;2023-04-19T10:43:42;18.70;99.90
59847;DHT22;45728;48.788;2.302;2023-04-19T10:48:51;19.70;99.90
59847;DHT22;45728;48.788;2.302;2023-04-19T10:51:25;19.70;99.90
59847;DHT22;45728;48.788;2.302;2023-04-19T11:01:53;18.80;99.90
59847;DHT22;45728;48.788;2.302;2023-04-19T11:11:52;19.80;99.90
59847;DHT22;45728;48.788;2.302;2023-04-19T11:14:22;19.50;99.90
59847;DHT22;45728;48.788;2.302;2023-04-19T11:16:49;18.60;99.90
59847;DHT22;45728;48.788;2.302;2023-04-19T11:19:16;18.60;99.90
59847;DHT22;45728;48.788;2.302;2023-04-19T11:21:44;19.20;99.90
59847;DHT22;45728;48.788;2.302;2023-04-19T11:24:11;19.50;99.90
59847;DHT22;45728;48.788;2.302;2023-04-19T11:26:38;19.80;99.90
59847;DHT22;45728;48.788;2.302;2023-04-19T11:29:04;20.30;99.90
59847;DHT22;45728;48.788;2.302;2023-04-19T11:31:31;20.40;99.90
59847;DHT22;45728;48.788;2.302;2023-04-19T11:33:58;19.30;99.90
59847;DHT22;45728;48.788;2.302;2023-04-19T11:36:27;19.40;99.90
59847;DHT22;45728;48.788;2.302;2023-04-19T11:38:53;19.80;99.90
59847;DHT22;45728;48.788;2.302;2023-04-19T11:41:20;20.10;99.90
59847;DHT22;45728;48.788;2.302;2023-04-19T11:43:46;19.80;99.90
59847;DHT22;45728;48.788;2.302;2023-04-19T11:46:13;20.20;99.60
59847;DHT22;45728;48.788;2.302;2023-04-19T11:48:50;19.90;99.70
59847;DHT22;45728;48.788;2.302;2023-04-19T11:51:16;19.00;99.90
59847;DHT22;45728;48.788;2.302;2023-04-19T11:53:43;19.60;99.90
59847;DHT22;45728;48.788;2.302;2023-04-19T11:56:09;20.30;99.90
59847;DHT22;45728;48.788;2.302;2023-04-19T11:58:43;19.50;99.60
59847;DHT22;45728;48.788;2.302;2023-04-19T12:01:12;19.30;99.90
59847;DHT22;45728;48.788;2.302;2023-04-19T12:06:32;19.80;99.90
59847;DHT22;45728;48.788;2.302;2023-04-19T12:08:58;19.80;99.90
59847;DHT22;45728;48.788;2.302;2023-04-19T12:11:37;20.40;99.90
59847;DHT22;45728;48.788;2.302;2023-04-19T12:14:13;19.60;99.70
59847;DHT22;45728;48.788;2.302;2023-04-19T12:16:39;19.20;99.90
59847;DHT22;45728;48.788;2.302;2023-04-19T12:19:16;19.20;99.90
59847;DHT22;45728;48.788;2.302;2023-04-19T12:21:44;19.60;99.90
59847;DHT22;45728;48.788;2.302;2023-04-19T12:24:13;20.20;99.90
59847;DHT22;45728;48.788;2.302;2023-04-19T12:26:53;20.60;99.70
59847;DHT22;45728;48.788;2.302;2023-04-19T12:29:20;20.60;99.80
59847;DHT22;45728;48.788;2.302;2023-04-19T12:31:46;20.30;99.60
59847;DHT22;45728;48.788;2.302;2023-04-19T12:34:12;19.50;99.90
59847;DHT22;45728;48.788;2.302;2023-04-19T12:36:38;19.20;99.90
59847;DHT22;45728;48.788;2.302;2023-04-19T12:39:04;19.30;99.90
59847;DHT22;45728;48.788;2.302;2023-04-19T12:41:30;19.80;99.90
59847;DHT22;45728;48.788;2.302;2023-04-19T12:43:56;19.80;99.90
59847;DHT22;45728;48.788;2.302;2023-04-19T12:46:22;20.30;99.70
59847;DHT22;45728;48.788;2.302;2023-04-19T12:48:48;19.90;99.50
59847;DHT22;45728;48.788;2.302;2023-04-19T12:51:14;20.10;99.20
59847;DHT22;45728;48.788;2.302;2023-04-19T12:53:46;20.20;99.70
59847;DHT22;45728;48.788;2.302;2023-04-19T12:56:12;20.60;99.50
59847;DHT22;45728;48.788;2.302;2023-04-19T12:58:40;20.60;98.70
59847;DHT22;45728;48.788;2.302;2023-04-19T13:01:06;20.50;99.00
59847;DHT22;45728;48.788;2.302;2023-04-19T13:03:32;20.00;99.00
59847;DHT22;45728;48.788;2.302;2023-04-19T13:06:02;19.60;99.50
59847;DHT22;45728;48.788;2.302;2023-04-19T13:08:28;20.10;99.90
59847;DHT22;45728;48.788;2.302;2023-04-19T13:10:54;20.00;99.30
59847;DHT22;45728;48.788;2.302;2023-04-19T13:13:21;19.90;99.10
59847;DHT22;45728;48.788;2.302;2023-04-19T13:15:47;20.10;99.20
59847;DHT22;45728;48.788;2.302;2023-04-19T13:18:13;19.80;99.90
59847;DHT22;45728;48.788;2.302;2023-04-19T13:20:39;19.80;99.30
59847;DHT22;45728;48.788;2.302;2023-04-19T13:23:05;19.90;99.90
59847;DHT22;45728;48.788;2.302;2023-04-19T13:25:31;20.00;99.40
59847;DHT22;45728;48.788;2.302;2023-04-19T13:27:57;19.80;99.50
59847;DHT22;45728;48.788;2.302;2023-04-19T13:30:23;19.40;99.60
59847;DHT22;45728;48.788;2.302;2023-04-19T13:32:50;19.40;99.40
59847;DHT22;45728;48.788;2.302;2023-04-19T13:35:16;19.40;99.50
59847;DHT22;45728;48.788;2.302;2023-04-19T13:37:42;19.10;99.90
59847;DHT22;45728;48.788;2.302;2023-04-19T13:40:09;19.60;99.70
59847;DHT22;45728;48.788;2.302;2023-04-19T13:42:36;19.70;99.60
59847;DHT22;45728;48.788;2.302;2023-04-19T13:45:02;19.90;99.70
59847;DHT22;45728;48.788;2.302;2023-04-19T13:47:28;20.00;99.10
59847;DHT22;45728;48.788;2.302;2023-04-19T13:49:54;19.70;99.20
59847;DHT22;45728;48.788;2.302;2023-04-19T13:52:20;20.00;99.10
59847;DHT22;45728;48.788;2.302;2023-04-19T13:54:48;19.80;99.10
59847;DHT22;45728;48.788;2.302;2023-04-19T13:57:14;19.30;99.70
59847;DHT22;45728;48.788;2.302;2023-04-19T13:59:41;19.20;99.90
59847;DHT22;45728;48.788;2.302;2023-04-19T14:02:07;19.60;99.90
59847;DHT22;45728;48.788;2.302;2023-04-19T14:04:33;20.00;99.80
59847;DHT22;45728;48.788;2.302;2023-04-19T14:06:59;19.80;99.30
59847;DHT22;45728;48.788;2.302;2023-04-19T14:09:26;19.90;99.40
59847;DHT22;45728;48.788;2.302;2023-04-19T14:11:52;20.00;99.20
59847;DHT22;45728;48.788;2.302;2023-04-19T14:14:18;20.30;99.20
59847;DHT22;45728;48.788;2.302;2023-04-19T14:16:44;20.20;98.90
59847;DHT22;45728;48.788;2.302;2023-04-19T14:19:10;19.90;99.10
59847;DHT22;45728;48.788;2.302;2023-04-19T14:21:36;19.70;99.50
59847;DHT22;45728;48.788;2.302;2023-04-19T14:24:03;19.80;99.90
59847;DHT22;45728;48.788;2.302;2023-04-19T14:26:29;20.30;99.80
59847;DHT22;45728;48.788;2.302;2023-04-19T14:28:55;20.80;99.70
59847;DHT22;45728;48.788;2.302;2023-04-19T14:31:21;21.30;99.10
59847;DHT22;45728;48.788;2.302;2023-04-19T14:33:47;20.90;97.90
59847;DHT22;45728;48.788;2.302;2023-04-19T14:36:14;20.40;98.20
59847;DHT22;45728;48.788;2.302;2023-04-19T14:38:40;20.10;98.70
59847;DHT22;45728;48.788;2.302;2023-04-19T14:41:06;20.10;99.20
59847;DHT22;45728;48.788;2.302;2023-04-19T14:43:32;20.40;98.50
59847;DHT22;45728;48.788;2.302;2023-04-19T14:45:58;19.40;99.20
59847;DHT22;45728;48.788;2.302;2023-04-19T14:48:24;19.60;99.50
59847;DHT22;45728;48.788;2.302;2023-04-19T14:50:50;19.90;99.20
59847;DHT22;45728;48.788;2.302;2023-04-19T14:53:16;20.10;98.90
59847;DHT22;45728;48.788;2.302;2023-04-19T14:55:42;20.10;98.60
59847;DHT22;45728;48.788;2.302;2023-04-19T14:58:08;19.40;99.30
59847;DHT22;45728;48.788;2.302;2023-04-19T15:00:35;19.70;99.30
59847;DHT22;45728;48.788;2.302;2023-04-19T15:03:01;19.50;99.10
59847;DHT22;45728;48.788;2.302;2023-04-19T15:05:27;19.30;99.30
59847;DHT22;45728;48.788;2.302;2023-04-19T15:07:53;19.20;99.30
59847;DHT22;45728;48.788;2.302;2023-04-19T15:10:19;19.20;99.60
59847;DHT22;45728;48.788;2.302;2023-04-19T15:12:45;19.20;99.10
59847;DHT22;45728;48.788;2.302;2023-04-19T15:15:11;19.20;99.20
59847;DHT22;45728;48.788;2.302;2023-04-19T15:17:37;19.20;99.20
59847;DHT22;45728;48.788;2.302;2023-04-19T15:20:04;19.30;99.60
59847;DHT22;45728;48.788;2.302;2023-04-19T15:22:32;19.70;99.20
59847;DHT22;45728;48.788;2.302;2023-04-19T15:25:01;19.80;99.30
59847;DHT22;45728;48.788;2.302;2023-04-19T15:27:27;20.00;98.70
59847;DHT22;45728;48.788;2.302;2023-04-19T15:29:53;20.20;98.60
59847;DHT22;45728;48.788;2.302;2023-04-19T15:32:19;19.30;98.60
59847;DHT22;45728;48.788;2.302;2023-04-19T15:34:45;19.10;99.20
59847;DHT22;45728;48.788;2.302;2023-04-19T15:37:11;19.10;98.80
59847;DHT22;45728;48.788;2.302;2023-04-19T15:39:37;19.20;99.10
59847;DHT22;45728;48.788;2.302;2023-04-19T15:42:04;19.40;99.10
59847;DHT22;45728;48.788;2.302;2023-04-19T15:44:30;19.00;99.40
59847;DHT22;45728;48.788;2.302;2023-04-19T15:46:56;18.90;99.80
59847;DHT22;45728;48.788;2.302;2023-04-19T15:49:22;18.40;99.90
59847;DHT22;45728;48.788;2.302;2023-04-19T15:51:48;18.30;99.90
59847;DHT22;45728;48.788;2.302;2023-04-19T15:54:14;18.50;99.90